DAL13 KSAN-PHNL
Flight info
| Callsign | DAL13 |
|---|---|
| Flight time | N/A |
| Altitude | 36000 |
| Route | KSAN/27 N0447F360 PADRZ2 IKAYE DCT MQO DCT AUDIA DCT ADUMM DCT CUNDU DCT BILLO R464 BEKME/N0446F380 R464 BITTA INOYI1 PHNL/04R |
| Aircraft | A320/M-SDE3FGHIRWY/LB1 |
Departure
| Time | 2026-05-07 08:24 |
|---|---|
| Airport | San Diego International Airport (KSAN) |
Arrival
| Time | N/A |
|---|---|
| Airport | Daniel K. Inouye International Airport (PHNL) |
| Time | Latitude | Longitude | Altitude | Speed | Heading |
|---|---|---|---|---|---|
| 2026-05-07 07:31 | 32.73348 | -117.20062 | 19 ft | 0 kts | 263° |
| 2026-05-07 08:07 | 32.73349 | -117.20048 | 19 ft | 2 kts | 276° |
| 2026-05-07 08:08 | 32.73346 | -117.20030 | 19 ft | 2 kts | 289° |
| 2026-05-07 08:08 | 32.73340 | -117.20014 | 19 ft | 2 kts | 303° |
| 2026-05-07 08:08 | 32.73330 | -117.20001 | 19 ft | 2 kts | 317° |
| 2026-05-07 08:08 | 32.73318 | -117.19990 | 19 ft | 2 kts | 330° |
| 2026-05-07 08:09 | 32.73305 | -117.19982 | 19 ft | 2 kts | 344° |
| 2026-05-07 08:09 | 32.73290 | -117.19979 | 19 ft | 2 kts | 358° |
| 2026-05-07 08:09 | 32.73275 | -117.19981 | 19 ft | 2 kts | 12° |
| 2026-05-07 08:09 | 32.73260 | -117.19984 | 19 ft | 2 kts | 10° |
| 2026-05-07 08:10 | 32.73257 | -117.19985 | 19 ft | 0 kts | 10° |
| 2026-05-07 08:14 | 32.73260 | -117.19984 | 19 ft | 0 kts | 10° |
| 2026-05-07 08:14 | 32.73270 | -117.19982 | 19 ft | 1 kts | 10° |
| 2026-05-07 08:14 | 32.73288 | -117.19980 | 19 ft | 2 kts | 357° |
| 2026-05-07 08:15 | 32.73311 | -117.19988 | 19 ft | 3 kts | 344° |
| 2026-05-07 08:15 | 32.73340 | -117.19987 | 19 ft | 4 kts | 13° |
| 2026-05-07 08:15 | 32.73376 | -117.19976 | 19 ft | 5 kts | 13° |
| 2026-05-07 08:15 | 32.73419 | -117.19965 | 19 ft | 6 kts | 11° |
| 2026-05-07 08:16 | 32.73465 | -117.19948 | 19 ft | 7 kts | 37° |
| 2026-05-07 08:16 | 32.73476 | -117.19888 | 19 ft | 8 kts | 107° |
| 2026-05-07 08:16 | 32.73459 | -117.19820 | 19 ft | 8 kts | 106° |
| 2026-05-07 08:16 | 32.73443 | -117.19750 | 20 ft | 8 kts | 105° |
| 2026-05-07 08:17 | 32.73426 | -117.19680 | 20 ft | 9 kts | 105° |
| 2026-05-07 08:17 | 32.73408 | -117.19604 | 21 ft | 9 kts | 106° |
| 2026-05-07 08:17 | 32.73389 | -117.19528 | 21 ft | 9 kts | 106° |
| 2026-05-07 08:17 | 32.73371 | -117.19455 | 22 ft | 9 kts | 107° |
| 2026-05-07 08:18 | 32.73352 | -117.19376 | 22 ft | 10 kts | 105° |
| 2026-05-07 08:18 | 32.73331 | -117.19290 | 22 ft | 11 kts | 106° |
| 2026-05-07 08:18 | 32.73309 | -117.19197 | 21 ft | 12 kts | 106° |
| 2026-05-07 08:18 | 32.73284 | -117.19098 | 21 ft | 13 kts | 106° |
| 2026-05-07 08:19 | 32.73259 | -117.18991 | 21 ft | 13 kts | 105° |
| 2026-05-07 08:19 | 32.73232 | -117.18881 | 20 ft | 14 kts | 106° |
| 2026-05-07 08:19 | 32.73204 | -117.18763 | 19 ft | 14 kts | 105° |
| 2026-05-07 08:19 | 32.73175 | -117.18643 | 19 ft | 15 kts | 106° |
| 2026-05-07 08:20 | 32.73145 | -117.18520 | 19 ft | 15 kts | 107° |
| 2026-05-07 08:20 | 32.73114 | -117.18395 | 19 ft | 15 kts | 105° |
| 2026-05-07 08:20 | 32.73085 | -117.18272 | 19 ft | 15 kts | 105° |
| 2026-05-07 08:20 | 32.73064 | -117.18184 | 19 ft | 8 kts | 107° |
| 2026-05-07 08:21 | 32.73061 | -117.18143 | 19 ft | 0 kts | 72° |
| 2026-05-07 08:21 | 32.73063 | -117.18137 | 19 ft | 1 kts | 67° |
| 2026-05-07 08:21 | 32.73069 | -117.18126 | 19 ft | 2 kts | 50° |
| 2026-05-07 08:22 | 32.73085 | -117.18113 | 19 ft | 3 kts | 22° |
| 2026-05-07 08:22 | 32.73110 | -117.18112 | 19 ft | 4 kts | 342° |
| 2026-05-07 08:22 | 32.73136 | -117.18132 | 19 ft | 4 kts | 320° |
| 2026-05-07 08:22 | 32.73160 | -117.18167 | 19 ft | 6 kts | 298° |
| 2026-05-07 08:23 | 32.73170 | -117.18201 | 19 ft | 0 kts | 287° |
| 2026-05-07 08:23 | 32.73172 | -117.18209 | 19 ft | 8 kts | 287° |
| 2026-05-07 08:23 | 32.73255 | -117.18551 | 21 ft | 76 kts | 286° |
| 2026-05-07 08:23 | 32.73459 | -117.19389 | 23 ft | 133 kts | 285° |
| 2026-05-07 08:24 | 32.73762 | -117.20620 | 27 ft | 178 kts | 287° |
| 2026-05-07 08:24 | 32.74091 | -117.21988 | 701 ft | 165 kts | 292° |
| 2026-05-07 08:24 | 32.74617 | -117.23177 | 1227 ft | 168 kts | 304° |
| 2026-05-07 08:24 | 32.75308 | -117.24423 | 1471 ft | 192 kts | 305° |
| 2026-05-07 08:25 | 32.76074 | -117.25782 | 1913 ft | 201 kts | 307° |
| 2026-05-07 08:25 | 32.76890 | -117.27082 | 2585 ft | 196 kts | 309° |
| 2026-05-07 08:25 | 32.77710 | -117.28334 | 3238 ft | 191 kts | 309° |
| 2026-05-07 08:25 | 32.78509 | -117.29606 | 3770 ft | 194 kts | 309° |
| 2026-05-07 08:26 | 32.80236 | -117.32393 | 4330 ft | 230 kts | 309° |
| 2026-05-07 08:26 | 32.81248 | -117.33948 | 4604 ft | 250 kts | 311° |
| 2026-05-07 08:26 | 32.82343 | -117.35634 | 4997 ft | 266 kts | 309° |
| 2026-05-07 08:27 | 32.83471 | -117.37421 | 5686 ft | 269 kts | 310° |
| 2026-05-07 08:27 | 32.84563 | -117.39157 | 6573 ft | 263 kts | 310° |
| 2026-05-07 08:27 | 32.85706 | -117.40901 | 7061 ft | 274 kts | 312° |
| 2026-05-07 08:27 | 32.86907 | -117.42687 | 7623 ft | 282 kts | 312° |
| 2026-05-07 08:28 | 32.88130 | -117.44534 | 8270 ft | 286 kts | 312° |
| 2026-05-07 08:28 | 32.89343 | -117.46394 | 8896 ft | 291 kts | 311° |
| 2026-05-07 08:28 | 32.90600 | -117.48336 | 9505 ft | 296 kts | 311° |
| 2026-05-07 08:28 | 32.91841 | -117.50265 | 10111 ft | 301 kts | 312° |
| 2026-05-07 08:29 | 32.93146 | -117.52291 | 10522 ft | 313 kts | 312° |
| 2026-05-07 08:29 | 32.94493 | -117.54379 | 10801 ft | 329 kts | 311° |
| 2026-05-07 08:29 | 32.95924 | -117.56602 | 11133 ft | 342 kts | 311° |
| 2026-05-07 08:29 | 32.97378 | -117.58873 | 11692 ft | 347 kts | 311° |
| 2026-05-07 08:30 | 32.98841 | -117.61162 | 12324 ft | 349 kts | 311° |
| 2026-05-07 08:30 | 33.00314 | -117.63468 | 12936 ft | 352 kts | 311° |
| 2026-05-07 08:30 | 33.01797 | -117.65791 | 13538 ft | 354 kts | 311° |
| 2026-05-07 08:30 | 33.03287 | -117.68121 | 14087 ft | 357 kts | 311° |
| 2026-05-07 08:31 | 33.04789 | -117.70464 | 14678 ft | 358 kts | 312° |
| 2026-05-07 08:31 | 33.06401 | -117.72713 | 15263 ft | 357 kts | 317° |
| 2026-05-07 08:31 | 33.08170 | -117.74781 | 15827 ft | 356 kts | 322° |
| 2026-05-07 08:31 | 33.10032 | -117.76704 | 16388 ft | 357 kts | 323° |
| 2026-05-07 08:32 | 33.11918 | -117.78610 | 16923 ft | 358 kts | 323° |
| 2026-05-07 08:32 | 33.13830 | -117.80541 | 17379 ft | 362 kts | 323° |
| 2026-05-07 08:32 | 33.15776 | -117.82514 | 17800 ft | 367 kts | 323° |
| 2026-05-07 08:32 | 33.17711 | -117.84482 | 18281 ft | 370 kts | 323° |
| 2026-05-07 08:33 | 33.19654 | -117.86532 | 18772 ft | 374 kts | 320° |
| 2026-05-07 08:33 | 33.21505 | -117.88686 | 19225 ft | 377 kts | 319° |
| 2026-05-07 08:33 | 33.23373 | -117.90908 | 19687 ft | 379 kts | 319° |
| 2026-05-07 08:33 | 33.25225 | -117.93119 | 20155 ft | 381 kts | 319° |
| 2026-05-07 08:34 | 33.27116 | -117.95380 | 20619 ft | 384 kts | 319° |
| 2026-05-07 08:34 | 33.28987 | -117.97616 | 21053 ft | 386 kts | 319° |
| 2026-05-07 08:34 | 33.30900 | -117.99901 | 21489 ft | 388 kts | 319° |
| 2026-05-07 08:34 | 33.32817 | -118.02192 | 21917 ft | 390 kts | 319° |
| 2026-05-07 08:35 | 33.34718 | -118.04469 | 22342 ft | 392 kts | 319° |
| 2026-05-07 08:35 | 33.36653 | -118.06786 | 22752 ft | 394 kts | 319° |
| 2026-05-07 08:35 | 33.38603 | -118.09120 | 23153 ft | 397 kts | 319° |
| 2026-05-07 08:35 | 33.40557 | -118.11462 | 23552 ft | 399 kts | 319° |
| 2026-05-07 08:36 | 33.42519 | -118.13813 | 23927 ft | 401 kts | 319° |
| 2026-05-07 08:36 | 33.44489 | -118.16177 | 24308 ft | 403 kts | 319° |
| 2026-05-07 08:36 | 33.46468 | -118.18552 | 24681 ft | 405 kts | 319° |
| 2026-05-07 08:36 | 33.48458 | -118.20944 | 25036 ft | 407 kts | 319° |
| 2026-05-07 08:37 | 33.50459 | -118.23351 | 25384 ft | 409 kts | 319° |
| 2026-05-07 08:37 | 33.52466 | -118.25764 | 25721 ft | 411 kts | 319° |
| 2026-05-07 08:37 | 33.54483 | -118.28192 | 26043 ft | 413 kts | 319° |
| 2026-05-07 08:37 | 33.56504 | -118.30630 | 26360 ft | 415 kts | 319° |
| 2026-05-07 08:38 | 33.58553 | -118.33100 | 26675 ft | 417 kts | 319° |
| 2026-05-07 08:38 | 33.60599 | -118.35568 | 26971 ft | 419 kts | 319° |
| 2026-05-07 08:38 | 33.62638 | -118.38030 | 27267 ft | 420 kts | 319° |
| 2026-05-07 08:38 | 33.64704 | -118.40527 | 27562 ft | 422 kts | 319° |
| 2026-05-07 08:39 | 33.66776 | -118.43032 | 27846 ft | 423 kts | 319° |
| 2026-05-07 08:39 | 33.68851 | -118.45542 | 28126 ft | 425 kts | 319° |
| 2026-05-07 08:39 | 33.70935 | -118.48067 | 28404 ft | 426 kts | 319° |
| 2026-05-07 08:39 | 33.73019 | -118.50591 | 28657 ft | 428 kts | 319° |
| 2026-05-07 08:40 | 33.75116 | -118.53134 | 28901 ft | 430 kts | 318° |
| 2026-05-07 08:40 | 33.77223 | -118.55692 | 29146 ft | 431 kts | 318° |
| 2026-05-07 08:40 | 33.79331 | -118.58251 | 29386 ft | 432 kts | 318° |
| 2026-05-07 08:40 | 33.81438 | -118.60813 | 29623 ft | 434 kts | 318° |
| 2026-05-07 08:41 | 33.83551 | -118.63385 | 29863 ft | 434 kts | 318° |
| 2026-05-07 08:41 | 33.85665 | -118.65959 | 30185 ft | 433 kts | 318° |
| 2026-05-07 08:41 | 33.87794 | -118.68555 | 30496 ft | 432 kts | 318° |
| 2026-05-07 08:41 | 33.89897 | -118.71120 | 30786 ft | 431 kts | 318° |
| 2026-05-07 08:42 | 33.91994 | -118.73677 | 31065 ft | 430 kts | 318° |
| 2026-05-07 08:42 | 33.94091 | -118.76238 | 31333 ft | 430 kts | 318° |
| 2026-05-07 08:42 | 33.96175 | -118.78784 | 31603 ft | 429 kts | 318° |
| 2026-05-07 08:42 | 33.98252 | -118.81323 | 31865 ft | 428 kts | 318° |
| 2026-05-07 08:43 | 34.00354 | -118.83896 | 32121 ft | 427 kts | 318° |
| 2026-05-07 08:43 | 34.02422 | -118.86429 | 32338 ft | 427 kts | 318° |
| 2026-05-07 08:43 | 34.04513 | -118.88992 | 32575 ft | 426 kts | 318° |
| 2026-05-07 08:43 | 34.06563 | -118.91509 | 32814 ft | 425 kts | 318° |
| 2026-05-07 08:44 | 34.08645 | -118.94066 | 33042 ft | 424 kts | 318° |
| 2026-05-07 08:44 | 34.10708 | -118.96600 | 33281 ft | 423 kts | 318° |
| 2026-05-07 08:44 | 34.12782 | -118.99158 | 33505 ft | 422 kts | 317° |
| 2026-05-07 08:44 | 34.14748 | -119.01782 | 33704 ft | 424 kts | 314° |
| 2026-05-07 08:45 | 34.16618 | -119.04555 | 33918 ft | 425 kts | 312° |
| 2026-05-07 08:45 | 34.18439 | -119.07352 | 34133 ft | 424 kts | 311° |
| 2026-05-07 08:45 | 34.20240 | -119.10133 | 34359 ft | 423 kts | 311° |
| 2026-05-07 08:45 | 34.22039 | -119.12917 | 34583 ft | 422 kts | 311° |
| 2026-05-07 08:46 | 34.23854 | -119.15726 | 34808 ft | 421 kts | 312° |
| 2026-05-07 08:46 | 34.25643 | -119.18494 | 35013 ft | 420 kts | 312° |
| 2026-05-07 08:46 | 34.27423 | -119.21249 | 35200 ft | 419 kts | 312° |
| 2026-05-07 08:46 | 34.29225 | -119.24039 | 35373 ft | 419 kts | 312° |
| 2026-05-07 08:47 | 34.31023 | -119.26825 | 35528 ft | 418 kts | 312° |
| 2026-05-07 08:47 | 34.32801 | -119.29581 | 35685 ft | 418 kts | 311° |
| 2026-05-07 08:47 | 34.34592 | -119.32359 | 35842 ft | 417 kts | 311° |
| 2026-05-07 08:47 | 34.36360 | -119.35105 | 35973 ft | 417 kts | 311° |
| 2026-05-07 08:48 | 34.38145 | -119.37879 | 36077 ft | 418 kts | 311° |
| 2026-05-07 08:48 | 34.39914 | -119.40630 | 36086 ft | 418 kts | 311° |
| 2026-05-07 08:48 | 34.43478 | -119.46182 | 36091 ft | 418 kts | 311° |
| 2026-05-07 08:49 | 34.47035 | -119.51731 | 36090 ft | 417 kts | 311° |
| 2026-05-07 08:49 | 34.50588 | -119.57278 | 36097 ft | 417 kts | 311° |
| 2026-05-07 08:50 | 34.54140 | -119.62836 | 36104 ft | 418 kts | 311° |
| 2026-05-07 08:50 | 34.57932 | -119.68107 | 36099 ft | 412 kts | 322° |
| 2026-05-07 08:51 | 34.62538 | -119.72161 | 36115 ft | 410 kts | 328° |
| 2026-05-07 08:51 | 34.67256 | -119.76064 | 36111 ft | 409 kts | 328° |
| 2026-05-07 08:52 | 34.71931 | -119.79957 | 36120 ft | 409 kts | 328° |
| 2026-05-07 08:52 | 34.76611 | -119.83871 | 36132 ft | 410 kts | 328° |
| 2026-05-07 08:53 | 34.81314 | -119.87816 | 36135 ft | 410 kts | 327° |
| 2026-05-07 08:53 | 34.86000 | -119.91753 | 36140 ft | 409 kts | 327° |
| 2026-05-07 08:54 | 34.90654 | -119.95671 | 36149 ft | 409 kts | 327° |
| 2026-05-07 08:54 | 34.95324 | -119.99609 | 36165 ft | 408 kts | 327° |
| 2026-05-07 08:55 | 34.99987 | -120.03547 | 36173 ft | 407 kts | 327° |
| 2026-05-07 08:55 | 35.04647 | -120.07486 | 36158 ft | 408 kts | 327° |
| 2026-05-07 08:56 | 35.09323 | -120.11446 | 36138 ft | 409 kts | 327° |
| 2026-05-07 08:56 | 35.13990 | -120.15403 | 36124 ft | 409 kts | 327° |
| 2026-05-07 08:57 | 35.18653 | -120.19363 | 36114 ft | 409 kts | 327° |
| 2026-05-07 08:57 | 35.23330 | -120.23338 | 36108 ft | 408 kts | 327° |
| 2026-05-07 08:58 | 35.27969 | -120.27289 | 36107 ft | 408 kts | 327° |
| 2026-05-07 08:58 | 35.32639 | -120.31272 | 36104 ft | 408 kts | 327° |
| 2026-05-07 08:59 | 35.37266 | -120.35225 | 36103 ft | 408 kts | 327° |
| 2026-05-07 08:59 | 35.41932 | -120.39214 | 36100 ft | 408 kts | 327° |
| 2026-05-07 09:00 | 35.46586 | -120.43201 | 36098 ft | 408 kts | 327° |
| 2026-05-07 09:00 | 35.51223 | -120.47176 | 36100 ft | 408 kts | 327° |
| 2026-05-07 09:01 | 35.55853 | -120.51152 | 36106 ft | 408 kts | 327° |
| 2026-05-07 09:01 | 35.60486 | -120.55138 | 36111 ft | 408 kts | 327° |
| 2026-05-07 09:02 | 35.65012 | -120.59334 | 36116 ft | 408 kts | 322° |
| 2026-05-07 09:02 | 35.69380 | -120.63840 | 36124 ft | 409 kts | 322° |
| 2026-05-07 09:03 | 35.73783 | -120.68247 | 36131 ft | 408 kts | 323° |
| 2026-05-07 09:03 | 35.78224 | -120.72584 | 36131 ft | 409 kts | 323° |
| 2026-05-07 09:04 | 35.82655 | -120.76922 | 36131 ft | 409 kts | 322° |
| 2026-05-07 09:04 | 35.87110 | -120.81293 | 36126 ft | 408 kts | 322° |
| 2026-05-07 09:05 | 35.91533 | -120.85633 | 36118 ft | 408 kts | 322° |
| 2026-05-07 09:05 | 35.93766 | -120.87830 | 35707 ft | 410 kts | 322° |
| 2026-05-07 09:05 | 35.96016 | -120.90047 | 34702 ft | 419 kts | 322° |
| 2026-05-07 09:06 | 35.98298 | -120.92295 | 33694 ft | 425 kts | 322° |
| 2026-05-07 09:06 | 36.00594 | -120.94560 | 32872 ft | 428 kts | 323° |
| 2026-05-07 09:06 | 36.02902 | -120.96841 | 32082 ft | 431 kts | 323° |
| 2026-05-07 09:06 | 36.05246 | -120.99157 | 31266 ft | 434 kts | 323° |
| 2026-05-07 09:07 | 36.07618 | -121.01505 | 30546 ft | 434 kts | 323° |
| 2026-05-07 09:07 | 36.09965 | -121.03828 | 29942 ft | 433 kts | 323° |
| 2026-05-07 09:07 | 36.12286 | -121.06126 | 29394 ft | 430 kts | 323° |
| 2026-05-07 09:07 | 36.14616 | -121.08433 | 28854 ft | 427 kts | 323° |
| 2026-05-07 09:08 | 36.16900 | -121.10697 | 28327 ft | 424 kts | 323° |
| 2026-05-07 09:08 | 36.19202 | -121.12981 | 27797 ft | 422 kts | 323° |
| 2026-05-07 09:08 | 36.21488 | -121.15253 | 27408 ft | 417 kts | 323° |
| 2026-05-07 09:08 | 36.23731 | -121.17484 | 27101 ft | 416 kts | 323° |
| 2026-05-07 09:09 | 36.25980 | -121.19722 | 26743 ft | 415 kts | 323° |
| 2026-05-07 09:09 | 36.28223 | -121.21956 | 26344 ft | 412 kts | 323° |
| 2026-05-07 09:09 | 36.30430 | -121.24157 | 25925 ft | 409 kts | 323° |
| 2026-05-07 09:09 | 36.32659 | -121.26381 | 25470 ft | 406 kts | 323° |
| 2026-05-07 09:10 | 36.34860 | -121.28522 | 25027 ft | 402 kts | 325° |
| 2026-05-07 09:10 | 36.37145 | -121.30505 | 24573 ft | 399 kts | 328° |
| 2026-05-07 09:10 | 36.39441 | -121.32358 | 24103 ft | 397 kts | 329° |
| 2026-05-07 09:10 | 36.41759 | -121.34207 | 23642 ft | 395 kts | 329° |
| 2026-05-07 09:11 | 36.44072 | -121.36051 | 23170 ft | 393 kts | 329° |
| 2026-05-07 09:11 | 36.46354 | -121.37873 | 22691 ft | 392 kts | 329° |
| 2026-05-07 09:11 | 36.48654 | -121.39712 | 22198 ft | 391 kts | 329° |
| 2026-05-07 09:11 | 36.50917 | -121.41524 | 21732 ft | 390 kts | 329° |
| 2026-05-07 09:12 | 36.53197 | -121.43351 | 21246 ft | 389 kts | 329° |
| 2026-05-07 09:12 | 36.55453 | -121.45161 | 20757 ft | 388 kts | 329° |
| 2026-05-07 09:12 | 36.57719 | -121.46980 | 20282 ft | 387 kts | 329° |
| 2026-05-07 09:12 | 36.59978 | -121.48796 | 19828 ft | 384 kts | 329° |
| 2026-05-07 09:13 | 36.62214 | -121.50594 | 19377 ft | 383 kts | 329° |
| 2026-05-07 09:13 | 36.64447 | -121.52392 | 18937 ft | 382 kts | 329° |
| 2026-05-07 09:13 | 36.66651 | -121.54166 | 18451 ft | 381 kts | 329° |
| 2026-05-07 09:13 | 36.68873 | -121.55957 | 17976 ft | 380 kts | 329° |
| 2026-05-07 09:14 | 36.71079 | -121.57736 | 17506 ft | 379 kts | 329° |
| 2026-05-07 09:14 | 36.73293 | -121.59522 | 17056 ft | 377 kts | 329° |
| 2026-05-07 09:14 | 36.75493 | -121.61298 | 16621 ft | 375 kts | 328° |
| 2026-05-07 09:14 | 36.77649 | -121.63040 | 16196 ft | 372 kts | 328° |
| 2026-05-07 09:15 | 36.79834 | -121.64807 | 15774 ft | 369 kts | 328° |
| 2026-05-07 09:15 | 36.81957 | -121.66526 | 15368 ft | 367 kts | 328° |
| 2026-05-07 09:15 | 36.84082 | -121.68246 | 14957 ft | 364 kts | 328° |
| 2026-05-07 09:15 | 36.86192 | -121.69955 | 14541 ft | 361 kts | 327° |
| 2026-05-07 09:16 | 36.88290 | -121.71657 | 14130 ft | 358 kts | 327° |
| 2026-05-07 09:16 | 36.90384 | -121.73356 | 13717 ft | 356 kts | 327° |
| 2026-05-07 09:16 | 36.92440 | -121.75026 | 13326 ft | 353 kts | 327° |
| 2026-05-07 09:16 | 36.94476 | -121.76680 | 12941 ft | 350 kts | 327° |
| 2026-05-07 09:17 | 36.96526 | -121.78348 | 12551 ft | 347 kts | 327° |
| 2026-05-07 09:17 | 36.98531 | -121.79979 | 12171 ft | 345 kts | 327° |
| 2026-05-07 09:17 | 37.00544 | -121.81619 | 11774 ft | 342 kts | 327° |
| 2026-05-07 09:17 | 37.02526 | -121.83232 | 11377 ft | 340 kts | 327° |
| 2026-05-07 09:18 | 37.04507 | -121.84847 | 10974 ft | 339 kts | 327° |
| 2026-05-07 09:18 | 37.06477 | -121.86453 | 10569 ft | 337 kts | 327° |
| 2026-05-07 09:18 | 37.08414 | -121.88034 | 10217 ft | 332 kts | 327° |
| 2026-05-07 09:18 | 37.10341 | -121.89608 | 10039 ft | 321 kts | 327° |
| 2026-05-07 09:19 | 37.12159 | -121.91093 | 9978 ft | 307 kts | 327° |
| 2026-05-07 09:19 | 37.13924 | -121.92539 | 9928 ft | 294 kts | 327° |
| 2026-05-07 09:19 | 37.15596 | -121.93907 | 9757 ft | 286 kts | 327° |
| 2026-05-07 09:19 | 37.17245 | -121.95256 | 9419 ft | 284 kts | 327° |
| 2026-05-07 09:20 | 37.18889 | -121.96603 | 9107 ft | 282 kts | 327° |
| 2026-05-07 09:20 | 37.20540 | -121.97955 | 8808 ft | 279 kts | 327° |
| 2026-05-07 09:20 | 37.22149 | -121.99274 | 8516 ft | 276 kts | 327° |
| 2026-05-07 09:20 | 37.23745 | -122.00584 | 8232 ft | 272 kts | 327° |
| 2026-05-07 09:21 | 37.25316 | -122.01874 | 7953 ft | 269 kts | 327° |
| 2026-05-07 09:21 | 37.26881 | -122.03159 | 7668 ft | 267 kts | 328° |
| 2026-05-07 09:21 | 37.28426 | -122.04427 | 7379 ft | 264 kts | 327° |
| 2026-05-07 09:21 | 37.29942 | -122.05673 | 7094 ft | 262 kts | 327° |
| 2026-05-07 09:22 | 37.31464 | -122.06924 | 6801 ft | 259 kts | 327° |
| 2026-05-07 09:22 | 37.32962 | -122.08157 | 6523 ft | 255 kts | 327° |
| 2026-05-07 09:22 | 37.34421 | -122.09358 | 6253 ft | 252 kts | 327° |
| 2026-05-07 09:22 | 37.35883 | -122.10561 | 6009 ft | 247 kts | 327° |
| 2026-05-07 09:23 | 37.37325 | -122.11636 | 5969 ft | 242 kts | 335° |
| 2026-05-07 09:23 | 37.38923 | -122.12420 | 5733 ft | 248 kts | 343° |
| 2026-05-07 09:23 | 37.40597 | -122.13016 | 5219 ft | 254 kts | 345° |
| 2026-05-07 09:23 | 37.42326 | -122.13591 | 4743 ft | 259 kts | 345° |
| 2026-05-07 09:24 | 37.44054 | -122.14168 | 4466 ft | 255 kts | 345° |
| 2026-05-07 09:24 | 37.45744 | -122.14741 | 4205 ft | 251 kts | 345° |
| 2026-05-07 09:24 | 37.47423 | -122.15314 | 3913 ft | 246 kts | 345° |
| 2026-05-07 09:24 | 37.49071 | -122.15878 | 3616 ft | 247 kts | 344° |
| 2026-05-07 09:25 | 37.50750 | -122.16454 | 3365 ft | 253 kts | 345° |
| 2026-05-07 09:25 | 37.52427 | -122.17087 | 3155 ft | 252 kts | 334° |
| 2026-05-07 09:25 | 37.53792 | -122.18456 | 2915 ft | 251 kts | 308° |
| 2026-05-07 09:25 | 37.54719 | -122.20288 | 2601 ft | 248 kts | 298° |
| 2026-05-07 09:26 | 37.55500 | -122.22214 | 2290 ft | 246 kts | 297° |
| 2026-05-07 09:26 | 37.56253 | -122.24100 | 1975 ft | 233 kts | 298° |
| 2026-05-07 09:26 | 37.56979 | -122.25853 | 1688 ft | 224 kts | 298° |
| 2026-05-07 09:26 | 37.57700 | -122.27563 | 1401 ft | 214 kts | 298° |
| 2026-05-07 09:27 | 37.58378 | -122.29177 | 1137 ft | 205 kts | 298° |
| 2026-05-07 09:27 | 37.59018 | -122.30703 | 966 ft | 188 kts | 298° |
| 2026-05-07 09:27 | 37.60164 | -122.33436 | 463 ft | 163 kts | 298° |
| 2026-05-07 09:28 | 37.60665 | -122.34629 | 237 ft | 148 kts | 297° |
| 2026-05-07 09:28 | 37.61124 | -122.35724 | 69 ft | 136 kts | 297° |
| 2026-05-07 09:28 | 37.61521 | -122.36681 | 12 ft | 96 kts | 298° |
| 2026-05-07 09:28 | 37.61702 | -122.37105 | 14 ft | 28 kts | 299° |
| 2026-05-07 09:29 | 37.61790 | -122.37313 | 15 ft | 25 kts | 297° |
| 2026-05-07 09:29 | 37.61866 | -122.37496 | 21 ft | 20 kts | 297° |
| 2026-05-07 09:29 | 37.61938 | -122.37666 | 25 ft | 22 kts | 299° |
| 2026-05-07 09:29 | 37.61997 | -122.37817 | 28 ft | 16 kts | 281° |
| 2026-05-07 09:30 | 37.61961 | -122.37939 | 30 ft | 14 kts | 226° |
| 2026-05-07 09:30 | 37.61910 | -122.38032 | 31 ft | 11 kts | 266° |
| 2026-05-07 09:30 | 37.61910 | -122.38100 | 31 ft | 5 kts | 211° |
| 2026-05-07 09:30 | 37.61874 | -122.38109 | 31 ft | 4 kts | 193° |
| 2026-05-07 09:31 | 37.61851 | -122.38120 | 31 ft | 3 kts | 200° |
| 2026-05-07 09:31 | 37.61846 | -122.38122 | 31 ft | 0 kts | 201° |